sensor_id;sensor_type;location;lat;lon;timestamp;P1;durP1;ratioP1;P2;durP2;ratioP2
47713;SDS011;33475;46.614;13.888;2024-01-15T00:00:49;19.02;;;11.63;;
47713;SDS011;33475;46.614;13.888;2024-01-15T00:03:15;26.95;;;13.45;;
47713;SDS011;33475;46.614;13.888;2024-01-15T00:05:42;21.98;;;12.55;;
47713;SDS011;33475;46.614;13.888;2024-01-15T00:08:08;16.65;;;10.23;;
47713;SDS011;33475;46.614;13.888;2024-01-15T00:10:34;25.52;;;11.45;;
47713;SDS011;33475;46.614;13.888;2024-01-15T00:13:00;27.42;;;14.82;;
47713;SDS011;33475;46.614;13.888;2024-01-15T00:15:26;24.40;;;11.95;;
47713;SDS011;33475;46.614;13.888;2024-01-15T00:17:53;14.00;;;9.00;;
47713;SDS011;33475;46.614;13.888;2024-01-15T00:20:19;28.80;;;13.85;;
47713;SDS011;33475;46.614;13.888;2024-01-15T00:22:46;16.27;;;9.43;;
47713;SDS011;33475;46.614;13.888;2024-01-15T00:25:12;12.65;;;9.52;;
47713;SDS011;33475;46.614;13.888;2024-01-15T00:27:38;26.98;;;14.48;;
47713;SDS011;33475;46.614;13.888;2024-01-15T00:30:04;19.50;;;10.75;;
47713;SDS011;33475;46.614;13.888;2024-01-15T00:32:31;20.55;;;10.60;;
47713;SDS011;33475;46.614;13.888;2024-01-15T00:34:57;14.35;;;9.15;;
47713;SDS011;33475;46.614;13.888;2024-01-15T00:37:23;15.63;;;9.32;;
47713;SDS011;33475;46.614;13.888;2024-01-15T00:39:49;10.45;;;8.48;;
47713;SDS011;33475;46.614;13.888;2024-01-15T00:42:15;12.18;;;8.30;;
47713;SDS011;33475;46.614;13.888;2024-01-15T00:44:42;12.00;;;8.30;;
47713;SDS011;33475;46.614;13.888;2024-01-15T00:47:08;16.65;;;10.95;;
47713;SDS011;33475;46.614;13.888;2024-01-15T00:49:34;26.88;;;11.45;;
47713;SDS011;33475;46.614;13.888;2024-01-15T00:52:00;45.08;;;18.40;;
47713;SDS011;33475;46.614;13.888;2024-01-15T00:54:26;28.90;;;13.63;;
47713;SDS011;33475;46.614;13.888;2024-01-15T00:56:53;31.08;;;12.80;;
47713;SDS011;33475;46.614;13.888;2024-01-15T00:59:20;21.77;;;11.20;;
47713;SDS011;33475;46.614;13.888;2024-01-15T01:01:46;16.98;;;8.20;;
47713;SDS011;33475;46.614;13.888;2024-01-15T01:04:12;18.70;;;9.95;;
47713;SDS011;33475;46.614;13.888;2024-01-15T01:06:38;19.52;;;10.65;;
47713;SDS011;33475;46.614;13.888;2024-01-15T01:09:05;18.88;;;11.30;;
47713;SDS011;33475;46.614;13.888;2024-01-15T01:11:31;20.85;;;12.43;;
47713;SDS011;33475;46.614;13.888;2024-01-15T01:13:57;11.60;;;8.10;;
47713;SDS011;33475;46.614;13.888;2024-01-15T01:16:23;13.27;;;8.25;;
47713;SDS011;33475;46.614;13.888;2024-01-15T01:18:49;11.18;;;8.55;;
47713;SDS011;33475;46.614;13.888;2024-01-15T01:21:16;14.02;;;8.35;;
47713;SDS011;33475;46.614;13.888;2024-01-15T01:23:42;15.77;;;7.85;;
47713;SDS011;33475;46.614;13.888;2024-01-15T01:26:08;14.23;;;6.63;;
47713;SDS011;33475;46.614;13.888;2024-01-15T01:28:34;8.40;;;6.35;;
47713;SDS011;33475;46.614;13.888;2024-01-15T01:31:00;12.02;;;7.03;;
47713;SDS011;33475;46.614;13.888;2024-01-15T01:33:27;22.02;;;8.05;;
47713;SDS011;33475;46.614;13.888;2024-01-15T01:35:53;10.18;;;7.50;;
47713;SDS011;33475;46.614;13.888;2024-01-15T01:38:19;15.27;;;9.05;;
47713;SDS011;33475;46.614;13.888;2024-01-15T01:40:45;15.32;;;7.97;;
47713;SDS011;33475;46.614;13.888;2024-01-15T01:43:11;12.93;;;8.40;;
47713;SDS011;33475;46.614;13.888;2024-01-15T01:45:37;11.35;;;7.70;;
47713;SDS011;33475;46.614;13.888;2024-01-15T01:48:04;15.93;;;9.00;;
47713;SDS011;33475;46.614;13.888;2024-01-15T01:50:30;17.65;;;9.40;;
47713;SDS011;33475;46.614;13.888;2024-01-15T01:52:57;13.88;;;9.32;;
47713;SDS011;33475;46.614;13.888;2024-01-15T01:55:24;15.15;;;8.27;;
47713;SDS011;33475;46.614;13.888;2024-01-15T01:57:52;18.92;;;8.50;;
47713;SDS011;33475;46.614;13.888;2024-01-15T02:00:19;13.90;;;7.78;;
47713;SDS011;33475;46.614;13.888;2024-01-15T02:02:45;15.98;;;9.82;;
47713;SDS011;33475;46.614;13.888;2024-01-15T02:05:12;14.85;;;9.05;;
47713;SDS011;33475;46.614;13.888;2024-01-15T02:07:39;18.90;;;10.27;;
47713;SDS011;33475;46.614;13.888;2024-01-15T02:10:06;18.10;;;10.25;;
47713;SDS011;33475;46.614;13.888;2024-01-15T02:12:33;19.70;;;9.10;;
47713;SDS011;33475;46.614;13.888;2024-01-15T02:14:59;14.32;;;8.43;;
47713;SDS011;33475;46.614;13.888;2024-01-15T02:17:25;15.25;;;8.88;;
47713;SDS011;33475;46.614;13.888;2024-01-15T02:19:51;12.68;;;8.52;;
47713;SDS011;33475;46.614;13.888;2024-01-15T02:22:17;11.52;;;8.15;;
47713;SDS011;33475;46.614;13.888;2024-01-15T02:24:44;14.73;;;9.10;;
47713;SDS011;33475;46.614;13.888;2024-01-15T02:27:10;18.13;;;9.00;;
47713;SDS011;33475;46.614;13.888;2024-01-15T02:29:36;13.30;;;8.38;;
47713;SDS011;33475;46.614;13.888;2024-01-15T02:32:05;15.20;;;8.40;;
47713;SDS011;33475;46.614;13.888;2024-01-15T02:34:32;13.13;;;7.97;;
47713;SDS011;33475;46.614;13.888;2024-01-15T02:36:58;12.25;;;7.65;;
47713;SDS011;33475;46.614;13.888;2024-01-15T02:39:25;13.73;;;8.32;;
47713;SDS011;33475;46.614;13.888;2024-01-15T02:41:51;13.70;;;9.32;;
47713;SDS011;33475;46.614;13.888;2024-01-15T02:44:17;13.20;;;7.25;;
47713;SDS011;33475;46.614;13.888;2024-01-15T02:46:43;16.25;;;8.25;;
47713;SDS011;33475;46.614;13.888;2024-01-15T02:49:09;14.07;;;9.30;;
47713;SDS011;33475;46.614;13.888;2024-01-15T02:51:35;20.92;;;10.63;;
47713;SDS011;33475;46.614;13.888;2024-01-15T02:54:02;17.92;;;9.23;;
47713;SDS011;33475;46.614;13.888;2024-01-15T02:56:28;11.82;;;8.93;;
47713;SDS011;33475;46.614;13.888;2024-01-15T02:58:54;14.18;;;7.80;;
47713;SDS011;33475;46.614;13.888;2024-01-15T03:01:20;16.95;;;10.25;;
47713;SDS011;33475;46.614;13.888;2024-01-15T03:03:47;13.05;;;8.23;;
47713;SDS011;33475;46.614;13.888;2024-01-15T03:06:13;11.65;;;7.55;;
47713;SDS011;33475;46.614;13.888;2024-01-15T03:08:39;17.05;;;7.10;;
47713;SDS011;33475;46.614;13.888;2024-01-15T03:11:05;8.70;;;5.80;;
47713;SDS011;33475;46.614;13.888;2024-01-15T03:13:35;10.40;;;6.15;;
47713;SDS011;33475;46.614;13.888;2024-01-15T03:16:01;11.93;;;6.82;;
47713;SDS011;33475;46.614;13.888;2024-01-15T03:18:27;12.32;;;8.40;;
47713;SDS011;33475;46.614;13.888;2024-01-15T03:20:54;12.38;;;7.50;;
47713;SDS011;33475;46.614;13.888;2024-01-15T03:23:20;14.27;;;8.70;;
47713;SDS011;33475;46.614;13.888;2024-01-15T03:25:46;10.75;;;7.18;;
47713;SDS011;33475;46.614;13.888;2024-01-15T03:28:12;11.02;;;7.30;;
47713;SDS011;33475;46.614;13.888;2024-01-15T03:30:38;10.52;;;7.65;;
47713;SDS011;33475;46.614;13.888;2024-01-15T03:33:05;13.00;;;7.07;;
47713;SDS011;33475;46.614;13.888;2024-01-15T03:35:31;11.50;;;7.20;;
47713;SDS011;33475;46.614;13.888;2024-01-15T03:37:57;9.25;;;7.10;;
47713;SDS011;33475;46.614;13.888;2024-01-15T03:40:23;12.90;;;7.57;;
47713;SDS011;33475;46.614;13.888;2024-01-15T03:42:49;9.52;;;6.90;;
47713;SDS011;33475;46.614;13.888;2024-01-15T03:45:15;12.00;;;7.00;;
47713;SDS011;33475;46.614;13.888;2024-01-15T03:47:42;10.90;;;7.70;;
47713;SDS011;33475;46.614;13.888;2024-01-15T03:50:08;13.27;;;7.43;;
47713;SDS011;33475;46.614;13.888;2024-01-15T03:52:34;16.52;;;7.40;;
47713;SDS011;33475;46.614;13.888;2024-01-15T03:55:01;10.48;;;7.05;;
47713;SDS011;33475;46.614;13.888;2024-01-15T03:57:27;12.43;;;7.65;;
47713;SDS011;33475;46.614;13.888;2024-01-15T03:59:53;11.07;;;7.60;;
47713;SDS011;33475;46.614;13.888;2024-01-15T04:02:19;11.77;;;6.93;;
47713;SDS011;33475;46.614;13.888;2024-01-15T04:04:45;12.15;;;7.38;;
47713;SDS011;33475;46.614;13.888;2024-01-15T04:07:12;13.40;;;7.80;;
47713;SDS011;33475;46.614;13.888;2024-01-15T04:09:38;12.10;;;7.25;;
47713;SDS011;33475;46.614;13.888;2024-01-15T04:12:04;14.40;;;8.13;;
47713;SDS011;33475;46.614;13.888;2024-01-15T04:14:30;9.32;;;7.00;;
47713;SDS011;33475;46.614;13.888;2024-01-15T04:16:57;16.27;;;7.38;;
47713;SDS011;33475;46.614;13.888;2024-01-15T04:19:23;14.38;;;8.02;;
47713;SDS011;33475;46.614;13.888;2024-01-15T04:21:49;13.27;;;9.23;;
47713;SDS011;33475;46.614;13.888;2024-01-15T04:24:15;18.30;;;9.70;;
47713;SDS011;33475;46.614;13.888;2024-01-15T04:26:43;17.17;;;10.57;;
47713;SDS011;33475;46.614;13.888;2024-01-15T04:29:09;19.92;;;10.68;;
47713;SDS011;33475;46.614;13.888;2024-01-15T04:31:35;17.02;;;9.45;;
47713;SDS011;33475;46.614;13.888;2024-01-15T04:34:01;8.77;;;6.15;;
47713;SDS011;33475;46.614;13.888;2024-01-15T04:36:28;12.25;;;7.82;;
47713;SDS011;33475;46.614;13.888;2024-01-15T04:38:54;12.80;;;7.93;;
47713;SDS011;33475;46.614;13.888;2024-01-15T04:41:20;13.10;;;7.78;;
47713;SDS011;33475;46.614;13.888;2024-01-15T04:43:46;15.02;;;8.32;;
47713;SDS011;33475;46.614;13.888;2024-01-15T04:46:12;18.58;;;8.32;;
47713;SDS011;33475;46.614;13.888;2024-01-15T04:48:39;13.88;;;7.63;;
47713;SDS011;33475;46.614;13.888;2024-01-15T04:51:05;13.32;;;8.40;;
47713;SDS011;33475;46.614;13.888;2024-01-15T04:53:32;12.27;;;8.63;;
47713;SDS011;33475;46.614;13.888;2024-01-15T04:55:59;13.50;;;7.82;;
47713;SDS011;33475;46.614;13.888;2024-01-15T04:58:25;13.98;;;8.43;;
47713;SDS011;33475;46.614;13.888;2024-01-15T05:00:52;14.38;;;8.43;;
47713;SDS011;33475;46.614;13.888;2024-01-15T05:03:19;12.18;;;8.23;;
47713;SDS011;33475;46.614;13.888;2024-01-15T05:05:45;11.93;;;8.15;;
47713;SDS011;33475;46.614;13.888;2024-01-15T05:08:11;15.25;;;8.77;;
47713;SDS011;33475;46.614;13.888;2024-01-15T05:10:38;14.25;;;8.55;;
47713;SDS011;33475;46.614;13.888;2024-01-15T05:13:04;11.50;;;7.30;;
47713;SDS011;33475;46.614;13.888;2024-01-15T05:15:30;12.77;;;8.18;;
47713;SDS011;33475;46.614;13.888;2024-01-15T05:17:56;15.70;;;8.35;;
47713;SDS011;33475;46.614;13.888;2024-01-15T05:20:22;13.70;;;8.68;;
47713;SDS011;33475;46.614;13.888;2024-01-15T05:22:49;12.35;;;9.20;;
47713;SDS011;33475;46.614;13.888;2024-01-15T05:25:15;13.60;;;7.90;;
47713;SDS011;33475;46.614;13.888;2024-01-15T05:27:41;17.45;;;9.27;;
47713;SDS011;33475;46.614;13.888;2024-01-15T05:30:07;15.93;;;8.82;;
47713;SDS011;33475;46.614;13.888;2024-01-15T05:32:34;11.02;;;7.20;;
47713;SDS011;33475;46.614;13.888;2024-01-15T05:35:00;11.23;;;6.90;;
47713;SDS011;33475;46.614;13.888;2024-01-15T05:37:26;10.98;;;7.43;;
47713;SDS011;33475;46.614;13.888;2024-01-15T05:39:52;9.40;;;7.00;;
47713;SDS011;33475;46.614;13.888;2024-01-15T05:42:18;17.90;;;6.63;;
47713;SDS011;33475;46.614;13.888;2024-01-15T05:44:44;11.65;;;6.22;;
47713;SDS011;33475;46.614;13.888;2024-01-15T05:47:11;13.90;;;5.07;;
47713;SDS011;33475;46.614;13.888;2024-01-15T05:49:37;9.63;;;5.40;;
47713;SDS011;33475;46.614;13.888;2024-01-15T05:52:04;11.57;;;7.30;;
47713;SDS011;33475;46.614;13.888;2024-01-15T05:54:30;9.93;;;7.07;;
47713;SDS011;33475;46.614;13.888;2024-01-15T05:56:56;10.18;;;7.03;;
47713;SDS011;33475;46.614;13.888;2024-01-15T05:59:22;11.30;;;8.00;;
47713;SDS011;33475;46.614;13.888;2024-01-15T06:01:49;12.65;;;7.97;;
47713;SDS011;33475;46.614;13.888;2024-01-15T06:04:15;12.60;;;7.65;;
47713;SDS011;33475;46.614;13.888;2024-01-15T06:06:41;16.55;;;8.07;;
47713;SDS011;33475;46.614;13.888;2024-01-15T06:09:07;12.38;;;7.38;;
47713;SDS011;33475;46.614;13.888;2024-01-15T06:11:34;9.52;;;6.65;;
47713;SDS011;33475;46.614;13.888;2024-01-15T06:14:00;11.93;;;7.15;;
47713;SDS011;33475;46.614;13.888;2024-01-15T06:16:27;18.23;;;8.45;;
47713;SDS011;33475;46.614;13.888;2024-01-15T06:18:54;16.80;;;9.52;;
47713;SDS011;33475;46.614;13.888;2024-01-15T06:21:20;12.15;;;7.82;;
47713;SDS011;33475;46.614;13.888;2024-01-15T06:23:46;11.85;;;9.25;;
47713;SDS011;33475;46.614;13.888;2024-01-15T06:26:12;27.45;;;10.80;;
47713;SDS011;33475;46.614;13.888;2024-01-15T06:28:38;21.95;;;11.07;;
47713;SDS011;33475;46.614;13.888;2024-01-15T06:31:06;34.03;;;15.05;;
47713;SDS011;33475;46.614;13.888;2024-01-15T06:33:32;28.88;;;14.38;;
47713;SDS011;33475;46.614;13.888;2024-01-15T06:35:58;26.90;;;12.60;;
47713;SDS011;33475;46.614;13.888;2024-01-15T06:38:24;22.20;;;10.88;;
47713;SDS011;33475;46.614;13.888;2024-01-15T06:40:51;19.38;;;10.18;;
47713;SDS011;33475;46.614;13.888;2024-01-15T06:43:17;18.10;;;10.25;;
47713;SDS011;33475;46.614;13.888;2024-01-15T06:45:44;35.13;;;17.73;;
47713;SDS011;33475;46.614;13.888;2024-01-15T06:48:10;23.60;;;13.57;;
47713;SDS011;33475;46.614;13.888;2024-01-15T06:50:40;22.13;;;13.55;;
47713;SDS011;33475;46.614;13.888;2024-01-15T06:53:06;15.90;;;10.07;;
47713;SDS011;33475;46.614;13.888;2024-01-15T06:55:32;20.35;;;12.25;;
47713;SDS011;33475;46.614;13.888;2024-01-15T06:57:58;22.40;;;11.13;;
47713;SDS011;33475;46.614;13.888;2024-01-15T07:00:25;23.80;;;10.95;;
47713;SDS011;33475;46.614;13.888;2024-01-15T07:02:52;26.75;;;11.55;;
47713;SDS011;33475;46.614;13.888;2024-01-15T07:05:20;22.88;;;11.23;;
47713;SDS011;33475;46.614;13.888;2024-01-15T07:07:46;24.00;;;11.13;;
47713;SDS011;33475;46.614;13.888;2024-01-15T07:10:12;19.23;;;10.05;;
47713;SDS011;33475;46.614;13.888;2024-01-15T07:12:41;19.55;;;10.43;;
47713;SDS011;33475;46.614;13.888;2024-01-15T07:15:08;19.02;;;9.73;;
47713;SDS011;33475;46.614;13.888;2024-01-15T07:17:34;15.32;;;8.73;;
47713;SDS011;33475;46.614;13.888;2024-01-15T07:20:01;16.02;;;9.77;;
47713;SDS011;33475;46.614;13.888;2024-01-15T07:22:27;18.33;;;9.02;;
47713;SDS011;33475;46.614;13.888;2024-01-15T07:24:54;20.05;;;9.52;;
47713;SDS011;33475;46.614;13.888;2024-01-15T07:27:20;19.45;;;10.63;;
47713;SDS011;33475;46.614;13.888;2024-01-15T07:29:47;17.10;;;8.90;;
47713;SDS011;33475;46.614;13.888;2024-01-15T07:32:14;25.08;;;10.95;;
47713;SDS011;33475;46.614;13.888;2024-01-15T07:34:40;17.98;;;11.13;;
47713;SDS011;33475;46.614;13.888;2024-01-15T07:37:06;19.65;;;11.30;;
47713;SDS011;33475;46.614;13.888;2024-01-15T07:39:32;23.83;;;10.35;;
47713;SDS011;33475;46.614;13.888;2024-01-15T07:41:59;18.70;;;10.70;;
47713;SDS011;33475;46.614;13.888;2024-01-15T07:44:26;21.35;;;11.10;;
47713;SDS011;33475;46.614;13.888;2024-01-15T07:46:52;27.95;;;11.82;;
47713;SDS011;33475;46.614;13.888;2024-01-15T07:49:18;18.58;;;11.25;;
47713;SDS011;33475;46.614;13.888;2024-01-15T07:51:44;29.00;;;12.38;;
47713;SDS011;33475;46.614;13.888;2024-01-15T07:54:11;20.55;;;12.13;;
47713;SDS011;33475;46.614;13.888;2024-01-15T07:56:53;25.85;;;12.48;;
47713;SDS011;33475;46.614;13.888;2024-01-15T07:59:19;24.70;;;13.63;;
47713;SDS011;33475;46.614;13.888;2024-01-15T08:01:45;22.73;;;12.38;;
47713;SDS011;33475;46.614;13.888;2024-01-15T08:04:12;27.33;;;12.75;;
47713;SDS011;33475;46.614;13.888;2024-01-15T08:06:39;31.15;;;12.63;;
47713;SDS011;33475;46.614;13.888;2024-01-15T08:09:05;22.10;;;11.40;;
47713;SDS011;33475;46.614;13.888;2024-01-15T08:11:31;24.85;;;11.32;;
47713;SDS011;33475;46.614;13.888;2024-01-15T08:13:57;21.05;;;11.85;;
47713;SDS011;33475;46.614;13.888;2024-01-15T08:16:24;23.98;;;12.10;;
47713;SDS011;33475;46.614;13.888;2024-01-15T08:18:50;21.88;;;11.88;;
47713;SDS011;33475;46.614;13.888;2024-01-15T08:21:16;22.52;;;12.02;;
47713;SDS011;33475;46.614;13.888;2024-01-15T08:23:42;26.63;;;13.25;;
47713;SDS011;33475;46.614;13.888;2024-01-15T08:26:08;29.88;;;14.43;;
47713;SDS011;33475;46.614;13.888;2024-01-15T08:28:34;29.60;;;14.48;;
47713;SDS011;33475;46.614;13.888;2024-01-15T08:31:01;16.50;;;10.35;;
47713;SDS011;33475;46.614;13.888;2024-01-15T08:33:28;14.63;;;8.85;;
47713;SDS011;33475;46.614;13.888;2024-01-15T08:35:54;12.95;;;9.68;;
47713;SDS011;33475;46.614;13.888;2024-01-15T08:38:21;12.10;;;8.52;;
47713;SDS011;33475;46.614;13.888;2024-01-15T08:40:49;20.65;;;9.23;;
47713;SDS011;33475;46.614;13.888;2024-01-15T08:43:16;13.35;;;7.78;;
47713;SDS011;33475;46.614;13.888;2024-01-15T08:45:42;11.25;;;7.82;;
47713;SDS011;33475;46.614;13.888;2024-01-15T08:48:08;17.60;;;8.70;;
47713;SDS011;33475;46.614;13.888;2024-01-15T08:50:35;10.80;;;7.90;;
47713;SDS011;33475;46.614;13.888;2024-01-15T08:53:01;10.00;;;7.03;;
47713;SDS011;33475;46.614;13.888;2024-01-15T08:55:28;7.90;;;6.78;;
47713;SDS011;33475;46.614;13.888;2024-01-15T08:57:54;9.15;;;7.78;;
47713;SDS011;33475;46.614;13.888;2024-01-15T09:00:20;12.68;;;7.82;;
47713;SDS011;33475;46.614;13.888;2024-01-15T09:02:46;10.07;;;7.40;;
47713;SDS011;33475;46.614;13.888;2024-01-15T09:05:12;8.70;;;6.90;;
47713;SDS011;33475;46.614;13.888;2024-01-15T09:07:38;10.85;;;7.90;;
47713;SDS011;33475;46.614;13.888;2024-01-15T09:10:05;11.93;;;7.50;;
47713;SDS011;33475;46.614;13.888;2024-01-15T09:12:31;11.52;;;7.35;;
47713;SDS011;33475;46.614;13.888;2024-01-15T09:14:57;9.45;;;7.63;;
47713;SDS011;33475;46.614;13.888;2024-01-15T09:17:24;8.35;;;6.35;;
47713;SDS011;33475;46.614;13.888;2024-01-15T09:19:50;10.00;;;7.18;;
47713;SDS011;33475;46.614;13.888;2024-01-15T09:22:16;9.13;;;6.30;;
47713;SDS011;33475;46.614;13.888;2024-01-15T09:24:45;9.55;;;7.07;;
47713;SDS011;33475;46.614;13.888;2024-01-15T09:27:12;10.30;;;6.68;;
47713;SDS011;33475;46.614;13.888;2024-01-15T09:29:39;7.95;;;6.28;;
47713;SDS011;33475;46.614;13.888;2024-01-15T09:32:07;9.60;;;6.38;;
47713;SDS011;33475;46.614;13.888;2024-01-15T09:34:33;11.82;;;6.80;;
47713;SDS011;33475;46.614;13.888;2024-01-15T09:37:00;7.00;;;6.30;;
47713;SDS011;33475;46.614;13.888;2024-01-15T09:39:27;7.32;;;6.03;;
47713;SDS011;33475;46.614;13.888;2024-01-15T09:41:53;8.65;;;5.60;;
47713;SDS011;33475;46.614;13.888;2024-01-15T09:44:20;6.47;;;5.80;;
47713;SDS011;33475;46.614;13.888;2024-01-15T09:46:47;5.80;;;5.20;;
47713;SDS011;33475;46.614;13.888;2024-01-15T09:49:18;9.63;;;5.78;;
47713;SDS011;33475;46.614;13.888;2024-01-15T09:51:45;8.93;;;6.00;;
47713;SDS011;33475;46.614;13.888;2024-01-15T09:54:13;11.85;;;6.65;;
47713;SDS011;33475;46.614;13.888;2024-01-15T09:56:42;8.30;;;7.00;;
47713;SDS011;33475;46.614;13.888;2024-01-15T09:59:08;11.65;;;6.72;;
47713;SDS011;33475;46.614;13.888;2024-01-15T10:01:34;8.30;;;6.78;;
47713;SDS011;33475;46.614;13.888;2024-01-15T10:04:02;13.88;;;6.35;;
47713;SDS011;33475;46.614;13.888;2024-01-15T10:06:28;9.55;;;5.90;;
47713;SDS011;33475;46.614;13.888;2024-01-15T10:08:56;13.30;;;6.57;;
47713;SDS011;33475;46.614;13.888;2024-01-15T10:11:25;10.30;;;6.13;;
47713;SDS011;33475;46.614;13.888;2024-01-15T10:13:52;13.30;;;5.78;;
47713;SDS011;33475;46.614;13.888;2024-01-15T10:16:21;7.68;;;6.07;;
47713;SDS011;33475;46.614;13.888;2024-01-15T10:18:48;9.50;;;5.35;;
47713;SDS011;33475;46.614;13.888;2024-01-15T10:21:14;5.30;;;4.80;;
47713;SDS011;33475;46.614;13.888;2024-01-15T10:23:41;8.13;;;5.07;;
47713;SDS011;33475;46.614;13.888;2024-01-15T10:26:07;11.40;;;5.68;;
47713;SDS011;33475;46.614;13.888;2024-01-15T10:28:33;7.55;;;5.63;;
47713;SDS011;33475;46.614;13.888;2024-01-15T10:31:00;7.50;;;4.80;;
47713;SDS011;33475;46.614;13.888;2024-01-15T10:33:26;7.65;;;5.30;;
47713;SDS011;33475;46.614;13.888;2024-01-15T10:35:53;7.65;;;5.45;;
47713;SDS011;33475;46.614;13.888;2024-01-15T10:38:23;10.75;;;6.18;;
47713;SDS011;33475;46.614;13.888;2024-01-15T10:40:56;15.82;;;6.20;;
47713;SDS011;33475;46.614;13.888;2024-01-15T10:43:22;10.10;;;6.53;;
47713;SDS011;33475;46.614;13.888;2024-01-15T10:45:49;6.60;;;5.75;;
47713;SDS011;33475;46.614;13.888;2024-01-15T10:48:18;10.45;;;7.90;;
47713;SDS011;33475;46.614;13.888;2024-01-15T10:50:45;14.60;;;7.20;;
47713;SDS011;33475;46.614;13.888;2024-01-15T10:53:13;12.75;;;6.93;;
47713;SDS011;33475;46.614;13.888;2024-01-15T10:55:39;13.60;;;6.55;;
47713;SDS011;33475;46.614;13.888;2024-01-15T10:58:07;20.63;;;6.97;;
47713;SDS011;33475;46.614;13.888;2024-01-15T11:00:34;14.30;;;7.65;;
47713;SDS011;33475;46.614;13.888;2024-01-15T11:03:03;11.90;;;7.65;;
47713;SDS011;33475;46.614;13.888;2024-01-15T11:05:39;11.48;;;6.78;;
47713;SDS011;33475;46.614;13.888;2024-01-15T11:08:06;45.25;;;20.88;;
47713;SDS011;33475;46.614;13.888;2024-01-15T11:10:43;11.13;;;6.65;;
47713;SDS011;33475;46.614;13.888;2024-01-15T11:15:57;13.27;;;6.00;;
47713;SDS011;33475;46.614;13.888;2024-01-15T11:18:26;10.20;;;5.18;;
47713;SDS011;33475;46.614;13.888;2024-01-15T11:23:47;6.88;;;4.72;;
47713;SDS011;33475;46.614;13.888;2024-01-15T11:28:59;26.63;;;13.02;;
47713;SDS011;33475;46.614;13.888;2024-01-15T11:32:08;10.60;;;6.38;;
47713;SDS011;33475;46.614;13.888;2024-01-15T11:34:16;13.77;;;5.97;;
47713;SDS011;33475;46.614;13.888;2024-01-15T11:41:56;6.63;;;4.28;;
47713;SDS011;33475;46.614;13.888;2024-01-15T11:44:22;7.15;;;4.75;;
47713;SDS011;33475;46.614;13.888;2024-01-15T11:46:58;10.57;;;4.45;;
47713;SDS011;33475;46.614;13.888;2024-01-15T11:49:45;10.85;;;4.43;;
47713;SDS011;33475;46.614;13.888;2024-01-15T11:52:17;7.60;;;4.22;;
47713;SDS011;33475;46.614;13.888;2024-01-15T11:55:07;10.48;;;5.45;;
47713;SDS011;33475;46.614;13.888;2024-01-15T11:57:37;6.15;;;4.57;;
47713;SDS011;33475;46.614;13.888;2024-01-15T12:00:07;8.13;;;4.60;;
47713;SDS011;33475;46.614;13.888;2024-01-15T12:02:34;6.13;;;5.00;;
47713;SDS011;33475;46.614;13.888;2024-01-15T12:05:00;4.80;;;4.20;;
47713;SDS011;33475;46.614;13.888;2024-01-15T12:07:27;6.80;;;4.35;;
47713;SDS011;33475;46.614;13.888;2024-01-15T12:09:53;8.70;;;5.15;;
47713;SDS011;33475;46.614;13.888;2024-01-15T12:12:34;11.20;;;5.97;;
47713;SDS011;33475;46.614;13.888;2024-01-15T12:15:03;4.88;;;4.38;;
47713;SDS011;33475;46.614;13.888;2024-01-15T12:17:29;4.30;;;3.55;;
47713;SDS011;33475;46.614;13.888;2024-01-15T12:19:56;4.95;;;4.22;;
47713;SDS011;33475;46.614;13.888;2024-01-15T12:22:22;4.68;;;4.15;;
47713;SDS011;33475;46.614;13.888;2024-01-15T12:24:48;6.43;;;4.55;;
47713;SDS011;33475;46.614;13.888;2024-01-15T12:27:14;3.95;;;3.55;;
47713;SDS011;33475;46.614;13.888;2024-01-15T12:29:41;4.85;;;4.30;;
47713;SDS011;33475;46.614;13.888;2024-01-15T12:32:07;5.68;;;4.25;;
47713;SDS011;33475;46.614;13.888;2024-01-15T12:34:33;7.38;;;4.70;;
47713;SDS011;33475;46.614;13.888;2024-01-15T12:36:59;9.88;;;4.15;;
47713;SDS011;33475;46.614;13.888;2024-01-15T12:39:25;6.25;;;4.07;;
47713;SDS011;33475;46.614;13.888;2024-01-15T12:41:51;6.38;;;5.78;;
47713;SDS011;33475;46.614;13.888;2024-01-15T12:44:18;9.55;;;5.57;;
47713;SDS011;33475;46.614;13.888;2024-01-15T12:46:44;5.00;;;4.50;;
47713;SDS011;33475;46.614;13.888;2024-01-15T12:49:10;5.78;;;3.92;;
47713;SDS011;33475;46.614;13.888;2024-01-15T12:51:36;6.00;;;3.90;;
47713;SDS011;33475;46.614;13.888;2024-01-15T12:54:04;4.70;;;3.97;;
47713;SDS011;33475;46.614;13.888;2024-01-15T12:56:30;6.97;;;4.68;;
47713;SDS011;33475;46.614;13.888;2024-01-15T12:58:56;4.82;;;3.47;;
47713;SDS011;33475;46.614;13.888;2024-01-15T13:01:22;5.65;;;4.10;;
47713;SDS011;33475;46.614;13.888;2024-01-15T13:03:49;4.95;;;3.53;;
47713;SDS011;33475;46.614;13.888;2024-01-15T13:06:15;4.72;;;3.97;;
47713;SDS011;33475;46.614;13.888;2024-01-15T13:08:41;4.75;;;3.60;;
47713;SDS011;33475;46.614;13.888;2024-01-15T13:11:07;7.18;;;3.20;;
47713;SDS011;33475;46.614;13.888;2024-01-15T13:13:35;4.88;;;3.53;;
47713;SDS011;33475;46.614;13.888;2024-01-15T13:16:01;5.10;;;3.70;;
47713;SDS011;33475;46.614;13.888;2024-01-15T13:18:27;5.18;;;3.53;;
47713;SDS011;33475;46.614;13.888;2024-01-15T13:20:53;5.50;;;3.50;;
47713;SDS011;33475;46.614;13.888;2024-01-15T13:23:20;4.03;;;3.50;;
47713;SDS011;33475;46.614;13.888;2024-01-15T13:25:46;4.82;;;3.40;;
47713;SDS011;33475;46.614;13.888;2024-01-15T13:28:12;4.63;;;3.83;;
47713;SDS011;33475;46.614;13.888;2024-01-15T13:30:38;4.22;;;3.67;;
47713;SDS011;33475;46.614;13.888;2024-01-15T13:33:04;7.95;;;3.63;;
47713;SDS011;33475;46.614;13.888;2024-01-15T13:35:31;5.63;;;3.72;;
47713;SDS011;33475;46.614;13.888;2024-01-15T13:37:58;5.45;;;3.92;;
47713;SDS011;33475;46.614;13.888;2024-01-15T13:40:24;4.05;;;3.28;;
47713;SDS011;33475;46.614;13.888;2024-01-15T13:42:51;6.07;;;3.17;;
47713;SDS011;33475;46.614;13.888;2024-01-15T13:45:19;3.92;;;3.30;;
47713;SDS011;33475;46.614;13.888;2024-01-15T13:47:45;6.53;;;3.80;;
47713;SDS011;33475;46.614;13.888;2024-01-15T13:50:12;5.07;;;3.13;;
47713;SDS011;33475;46.614;13.888;2024-01-15T13:52:39;4.32;;;3.72;;
47713;SDS011;33475;46.614;13.888;2024-01-15T13:55:05;6.25;;;3.90;;
47713;SDS011;33475;46.614;13.888;2024-01-15T13:57:34;7.70;;;4.65;;
47713;SDS011;33475;46.614;13.888;2024-01-15T14:00:00;7.93;;;5.20;;
47713;SDS011;33475;46.614;13.888;2024-01-15T14:02:27;8.13;;;4.20;;
47713;SDS011;33475;46.614;13.888;2024-01-15T14:04:53;5.38;;;3.63;;
47713;SDS011;33475;46.614;13.888;2024-01-15T14:07:19;5.82;;;3.88;;
47713;SDS011;33475;46.614;13.888;2024-01-15T14:09:46;6.30;;;3.50;;
47713;SDS011;33475;46.614;13.888;2024-01-15T14:12:12;9.50;;;4.80;;
47713;SDS011;33475;46.614;13.888;2024-01-15T14:14:38;6.47;;;4.82;;
47713;SDS011;33475;46.614;13.888;2024-01-15T14:17:05;9.50;;;4.43;;
47713;SDS011;33475;46.614;13.888;2024-01-15T14:19:31;9.25;;;4.43;;
47713;SDS011;33475;46.614;13.888;2024-01-15T14:21:58;11.10;;;8.95;;
47713;SDS011;33475;46.614;13.888;2024-01-15T14:24:24;12.13;;;9.05;;
47713;SDS011;33475;46.614;13.888;2024-01-15T14:26:50;11.98;;;10.13;;
47713;SDS011;33475;46.614;13.888;2024-01-15T14:29:16;11.15;;;6.38;;
47713;SDS011;33475;46.614;13.888;2024-01-15T14:31:45;7.30;;;4.78;;
47713;SDS011;33475;46.614;13.888;2024-01-15T14:34:11;8.80;;;5.88;;